• Join FlightAware (Why Join?)
  • Login
  • US Flag 
09:54PM EDT


 

Airport Tracker/Info


-or-


 

Live Flight TrackerFlight Track Log ✈ UAL1202 ✈ 02-May-2014 ✈ KIAH - TJSJ / SJU

Flight Track Log - Related Links

Times and Time Zones

All times are in EDT time to prevent confusion due to time zone crossing. See the UAL1202 flight status page for this flight to view local times or setup timezone preferences in your user account.

Time Position Orientation Groundspeed Altitude Reporting Facility
EDT Latitude Longitude Course Direction KTS MPH feet Rate Location/Type
01:13AM 29.9522 -95.3303 85° East 176 203 1,200  Level Houston Center
01:14AM 29.9269 -95.2850 123° Southeast 239 275 2,500 2,160 Climbing Houston Center
01:15AM 29.7887 -94.9118 118° Southeast  Level FlightAware Approximate
01:15AM 29.8797 -95.2128 127° Southeast 263 303 5,400  Level Houston Center
01:16AM 29.7304 -94.7676 115° Southeast  Level FlightAware Approximate
01:16AM 29.8272 -95.1406 130° Southeast 286 329 8,400  Level Houston Center
01:17AM 29.7000 -94.6172 90° East  Level FlightAware Approximate
01:17AM 29.7694 -95.0636 131° Southeast 308 354 10,800  Level Houston Center
01:18AM 29.7083 -94.4587 85° East  Level FlightAware Approximate
01:18AM 29.7436 -94.9475 104° East 375 432 11,900  Level Houston Center
01:19AM 29.7206 -94.8208 102° East 400 460 14,800 2,460 Climbing Houston Center
01:20AM 29.6989 -94.6889 101° East 415 478 16,900 2,040 Climbing Houston Center
01:21AM 29.6750 -94.5525 101° East 431 496 18,900 2,040 Climbing Houston Center
01:22AM 29.6511 -94.4114 101° East 445 512 21,000 1,680 Climbing Houston Center
01:23AM 29.6256 -94.2647 101° East 464 534 22,300 1,380 Climbing Houston Center
01:24AM 29.6025 -94.1283 101° East 474 545 23,800 1,380 Climbing Houston Center
01:25AM 29.5758 -93.9753 101° East 485 558 25,100 1,140 Climbing Houston Center
01:26AM 29.5472 -93.8175 102° East 501 577 26,100 1,200 Climbing Houston Center
01:27AM 29.5189 -93.6550 101° East 516 594 27,500 1,200 Climbing Houston Center
01:28AM 29.4892 -93.4933 102° East 518 596 28,600 1,080 Climbing Houston Center
01:29AM 29.4589 -93.3289 102° East 524 603 29,700 1,020 Climbing Houston Center
01:30AM 29.4292 -93.1617 101° East 533 613 30,700 1,020 Climbing Houston Center
01:31AM 29.3983 -92.9925 102° East 539 620 31,800 1,200 Climbing Houston Center
01:32AM 29.3664 -92.8219 102° East 546 628 33,100 1,200 Climbing Houston Center
01:33AM 29.3364 -92.6544 102° East 542 624 34,300 1,080 Climbing Houston Center
01:34AM 29.3039 -92.4897 103° East 534 615 35,300 840 Climbing Houston Center
01:35AM 29.2722 -92.3233 102° East 537 618 36,000 780 Climbing Houston Center
01:36AM 29.2406 -92.1564 102° East 537 618 36,900 420 Climbing Houston Center
01:37AM 29.2083 -91.9892 102° East 538 619 36,900  Level Houston Center
01:38AM 29.1692 -91.7889 103° East 538 619 37,000  Climbing Houston Center
01:39AM 29.1408 -91.6403 102° East 541 623 36,900  Descending Houston Center
01:40AM 29.1075 -91.4736 103° East 541 623 37,000  Climbing Houston Center
01:41AM 29.0753 -91.3047 102° East 543 625 37,000  Level Houston Center
01:42AM 29.0406 -91.1364 103° East 544 626 37,000  Level Houston Center
01:43AM 29.0069 -90.9669 103° East 545 627 37,000 -60 Level Houston Center
01:44AM 28.9733 -90.7961 103° East 550 633 36,900  Descending Houston Center
01:45AM 28.9378 -90.6247 103° East 552 635 37,000  Climbing Houston Center
01:46AM 28.9028 -90.4544 103° East 556 640 37,000  Level Houston Center
01:47AM 28.8678 -90.2842 103° East 556 640 37,000  Level Houston Center
01:48AM 28.8333 -90.1158 103° East 551 634 37,000 -60 Level Houston Center
01:49AM 28.7981 -89.9467 103° East 551 634 36,900  Descending Houston Center
01:50AM 28.7622 -89.7783 104° East 552 635 37,000  Climbing Houston Center
01:51AM 28.7261 -89.6086 104° East 552 635 37,000 -60 Level Houston Center
01:52AM 28.6906 -89.4364 103° East 554 638 36,900  Descending Houston Center
01:53AM 28.6469 -89.2339 104° East 555 639 37,000  Climbing Houston Center
01:54AM 28.6097 -89.0639 104° East 555 639 37,000  Level Houston Center
01:55AM 28.5733 -88.8958 104° East 555 639 37,000  Level Houston Center
01:56AM 28.5364 -88.7242 104° East 555 639 37,000  Level Houston Center
01:57AM 28.4986 -88.5536 104° East 555 639 37,000  Level Houston Center
01:58AM 28.4611 -88.3822 104° East 556 640 37,000 -60 Level Houston Center
01:59AM 28.4228 -88.2117 104° East 559 643 36,900  Descending Houston Center
02:00AM 28.3842 -88.0392 104° East 560 644 37,000  Climbing Houston Center
02:01AM 28.3375 -87.8753 108° East 552 635 37,000  Level Houston Center
02:02AM 28.2903 -87.7117 108° East 548 631 37,000  Level Houston Center
02:03AM 28.2428 -87.5481 108° East 547 629 37,000 -60 Level Houston Center
02:04AM 28.1972 -87.3853 108° East 547 629 36,900  Descending Houston Center
02:05AM 28.1531 -87.2208 107° East 547 629 37,000  Climbing Houston Center
02:06AM 28.1086 -87.0572 107° East 547 629 37,000  Level Houston Center
02:07AM 28.0633 -86.8917 107° East 547 629 37,000 -60 Level Houston Center
02:08AM 28.0175 -86.7292 108° East 547 629 36,900  Descending Houston Center
02:09AM 27.9714 -86.5644 108° East 548 631 37,000  Climbing Houston Center
02:10AM 27.9253 -86.3994 108° East 548 631 37,000  Level Houston Center
02:11AM 27.8578 -86.1692 108° East 548 631 37,000  Level Jacksonville Center
02:12AM 27.8097 -86.0056 108° East 547 629 37,000  Level Jacksonville Center
02:13AM 27.7617 -85.8331 107° East 547 629 37,000 -60 Level Jacksonville Center
02:14AM 27.7169 -85.6842 109° East 537 618 36,900  Descending Jacksonville Center
02:16AM 27.6517 -85.4514 108° East 540 621 37,000  Climbing Miami Center
02:17AM 27.5994 -85.3094 113° Southeast 546 628 36,900 -60 Descending Miami Center
02:18AM 27.5400 -85.1533 113° Southeast 546 628 36,900  Level Miami Center
02:19AM 27.4883 -84.9953 110° East 539 620 36,900  Level Miami Center
02:20AM 27.4303 -84.8417 113° Southeast 539 620 37,000  Climbing Miami Center
02:21AM 27.3661 -84.6808 114° Southeast 539 620 37,000  Level Miami Center
02:22AM 27.3100 -84.5253 112° Southeast 544 626 37,000 -60 Level Miami Center
02:23AM 27.2514 -84.3697 113° Southeast 544 626 36,900  Descending Miami Center
02:24AM 27.1947 -84.2167 113° Southeast 538 619 37,000  Climbing Miami Center
02:25AM 27.1378 -84.0617 112° Southeast 532 612 37,000 -60 Level Miami Center
02:26AM 27.0786 -83.9111 114° Southeast 527 606 36,900 -60 Descending Miami Center
02:27AM 27.0189 -83.7608 114° Southeast 527 606 36,900  Level Miami Center
02:28AM 26.9636 -83.6064 112° Southeast 527 606 37,000  Climbing Miami Center
02:29AM 26.9058 -83.4564 113° Southeast 527 606 37,000  Level Miami Center
02:30AM 26.8386 -83.2853 114° Southeast 535 616 37,000 -60 Level Miami Center
02:31AM 26.7806 -83.1331 113° Southeast 535 616 36,900  Descending Miami Center
02:32AM 26.7222 -82.9814 113° Southeast 530 610 37,000  Climbing Miami Center
02:33AM 26.6639 -82.8297 113° Southeast 530 610 36,900  Descending Miami Center
02:34AM 26.6033 -82.6781 114° Southeast 530 610 37,000  Climbing Miami Center
02:35AM 26.5444 -82.5267 113° Southeast 530 610 36,900  Descending Miami Center
02:36AM 26.4836 -82.3731 114° Southeast 530 610 37,000  Climbing Miami Center
02:37AM 26.4225 -82.2242 115° Southeast 530 610 37,000 -60 Level Miami Center
02:38AM 26.3631 -82.0778 114° Southeast 523 602 36,900  Descending Miami Center
02:39AM 26.3153 -81.9506 113° Southeast 523 602 37,000  Climbing Miami Center
02:40AM 26.2522 -81.7858 113° Southeast 523 602 37,000  Level Miami Center
02:41AM 26.1922 -81.6375 114° Southeast 528 608 37,000 -60 Level Miami Center
02:42AM 26.1303 -81.4892 115° Southeast 528 608 36,900  Descending Miami Center
02:43AM 26.0722 -81.3392 113° Southeast 528 608 37,000  Climbing Miami Center
02:44AM 26.0122 -81.1889 114° Southeast 528 608 37,000 -60 Level Miami Center
02:45AM 25.9517 -81.0411 114° Southeast 528 608 36,900 -60 Descending Miami Center
02:46AM 25.8911 -80.8914 114° Southeast 528 608 36,900  Level Miami Center
02:47AM 25.8303 -80.7439 115° Southeast 528 608 37,000  Climbing Miami Center
02:48AM 25.7736 -80.5989 113° Southeast 528 608 37,000  Level Miami Center
02:49AM 25.6942 -80.4283 117° Southeast 536 617 37,000  Level Miami Center
02:50AM 25.6433 -80.2886 112° Southeast 551 634 37,000 -60 Level Miami Center
02:51AM 25.5797 -80.1439 116° Southeast 536 617 36,900  Descending Miami Center
02:52AM 25.5158 -80.0017 116° Southeast 517 595 37,000  Climbing Miami Center
02:53AM 25.4542 -79.8597 116° Southeast 517 595 37,000 -60 Level Miami Center
02:54AM 25.3881 -79.7178 117° Southeast 517 595 36,900 -60 Descending Miami Center
02:55AM 25.3200 -79.5647 116° Southeast 517 595 36,900  Level Miami Center
02:56AM 25.2575 -79.4253 116° Southeast 512 589 37,000  Climbing Miami Center
02:57AM 25.1992 -79.2956 116° Southeast 512 589 36,900 -60 Descending Miami Center
02:58AM 25.1328 -79.1428 116° Southeast 512 589 36,900  Level Miami Center
02:59AM 25.0658 -79.0017 118° Southeast 512 589 37,000  Climbing Miami Center
03:00AM 25.0111 -78.8769 116° Southeast 512 589 37,000  Level Miami Center
03:01AM 24.9419 -78.7358 118° Southeast 512 589 37,000  Level Miami Center
03:02AM 24.8811 -78.5975 116° Southeast 512 589 37,000  Level Miami Center
03:03AM 24.8156 -78.4569 117° Southeast 507 583 37,000  Level Miami Center
03:04AM 24.7522 -78.3189 117° Southeast 507 583 37,000  Level Miami Center
03:05AM 24.6867 -78.1764 117° Southeast 514 592 37,000  Level Miami Center
03:06AM 24.6211 -78.0408 118° Southeast 514 592 37,000  Level Miami Center
03:07AM 24.5594 -77.9008 116° Southeast 508 585 37,000  Level Miami Center
03:08AM 24.4933 -77.7608 117° Southeast 508 585 37,000  Level Miami Center
03:09AM 24.4294 -77.6258 117° Southeast 508 585 37,000  Level Miami Center
03:10AM 24.3631 -77.4861 118° Southeast 503 579 37,000  Level Miami Center
03:11AM 24.3008 -77.3514 117° Southeast 503 579 37,000  Level Miami Center
03:12AM 24.2344 -77.2119 118° Southeast 503 579 37,000  Level Miami Center
03:13AM 24.1678 -77.0753 118° Southeast 503 579 37,000  Level Miami Center
03:14AM 24.1053 -76.9361 116° Southeast 503 579 37,000  Level Miami Center
03:15AM 24.0342 -76.7928 118° Southeast 503 579 37,000  Level Miami Center
03:16AM 23.9692 -76.6564 118° Southeast 497 572 37,000  Level Miami Center
03:17AM 23.9064 -76.5203 117° Southeast 497 572 37,000  Level Miami Center
03:18AM 23.8433 -76.3842 117° Southeast 497 572 37,000  Level Miami Center
03:19AM 23.7758 -76.2503 119° Southeast 497 572 37,000  Level Miami Center
03:20AM 23.7125 -76.1167 117° Southeast 497 572 37,000  Level Miami Center
03:21AM 23.6492 -75.9833 117° Southeast 497 572 37,000  Level Miami Center
03:22AM 23.5983 -75.8725 117° Southeast 497 572 37,000  Level Miami Center
03:23AM 23.5158 -75.7236 121° Southeast 497 572 37,000  Level Miami Center
03:24AM 23.4539 -75.5792 115° Southeast 516 594 37,000  Level Miami Center
03:25AM 23.3881 -75.4464 118° Southeast 510 587 37,000  Level Miami Center
03:26AM 23.3219 -75.3136 118° Southeast 500 575 37,000  Level Miami Center
03:27AM 23.2536 -75.1786 119° Southeast 500 575 37,000  Level Miami Center
03:28AM 23.1894 -75.0439 117° Southeast 500 575 37,000  Level Miami Center
03:29AM 23.1208 -74.9094 119° Southeast 495 570 37,000  Level Miami Center
03:30AM 23.0542 -74.7772 119° Southeast 495 570 37,000  Level Miami Center
03:31AM 22.9833 -74.6317 118° Southeast 495 570 37,000  Level Miami Center
03:32AM 22.9144 -74.5000 120° Southeast 495 570 37,000  Level Miami Center
03:33AM 22.8517 -74.3681 117° Southeast 495 570 37,000  Level Miami Center
03:34AM 22.7847 -74.2342 118° Southeast 495 570 37,000  Level Miami Center
03:35AM 22.7175 -74.1006 119° Southeast 495 570 37,000  Level Miami Center
03:36AM 22.6503 -73.9692 119° Southeast 495 570 37,000  Level Miami Center
03:37AM 22.5831 -73.8381 119° Southeast 495 570 37,000  Level Miami Center
03:38AM 22.5156 -73.7025 118° Southeast 495 570 37,000  Level Miami Center
03:39AM 22.4458 -73.5692 119° Southeast 500 575 37,000  Level Miami Center
03:40AM 22.3781 -73.4339 118° Southeast 500 575 37,000  Level Miami Center
03:41AM 22.3103 -73.3056 120° Southeast 495 570 37,000  Level Miami Center
03:42AM 22.2444 -73.1706 118° Southeast 495 570 37,000  Level Miami Center
03:43AM 22.1725 -73.0403 121° Southeast 495 570 37,000  Level Miami Center
03:44AM 22.1083 -72.9078 118° Southeast 495 570 37,000  Level Miami Center
03:45AM 22.0422 -72.7756 118° Southeast 495 570 37,000  Level Miami Center
03:46AM 21.9719 -72.6433 120° Southeast 495 570 37,000  Level Miami Center
03:47AM 21.9014 -72.5136 120° Southeast 495 570 37,000  Level Miami Center
03:48AM 21.8350 -72.3817 118° Southeast 495 570 37,000  Level Miami Center
03:49AM 21.7664 -72.2522 120° Southeast 495 570 37,000  Level Miami Center
03:50AM 21.7000 -72.1228 119° Southeast 495 570 37,000  Level Miami Center
03:51AM 21.6311 -71.9914 119° Southeast 495 570 37,000  Level Miami Center
03:52AM 21.5644 -71.8644 119° Southeast 495 570 37,000  Level Miami Center
03:53AM 21.4956 -71.7353 120° Southeast 495 570 37,000  Level Miami Center
03:54AM 21.4264 -71.6067 120° Southeast 495 570 37,000  Level Miami Center
03:55AM 21.3594 -71.4778 119° Southeast 495 570 37,000  Level Miami Center
03:56AM 21.2881 -71.3472 120° Southeast 500 575 37,000  Level Miami Center
03:57AM 21.2167 -71.2167 120° Southeast 500 575 37,000  Level Miami Center
03:58AM 21.1558 -71.0969 119° Southeast 505 581 37,000  Level Miami Center
03:59AM 21.0883 -70.9664 119° Southeast 505 581 37,000  Level Miami Center
04:00AM 21.0208 -70.8383 119° Southeast 505 581 37,000  Level Miami Center
04:01AM 20.9511 -70.7061 119° Southeast 500 575 37,000  Level Miami Center
04:02AM 20.8833 -70.5783 120° Southeast 500 575 37,000  Level Miami Center
04:03AM 20.8156 -70.4506 120° Southeast 495 570 37,000  Level Miami Center
04:04AM 20.7456 -70.3189 120° Southeast 495 570 37,000  Level Miami Center
04:05AM 20.6756 -70.1936 121° Southeast 495 570 37,000  Level Miami Center
04:06AM 20.6075 -70.0664 120° Southeast 495 570 37,000  Level Miami Center
04:07AM 20.5392 -69.9372 119° Southeast 495 570 37,000  Level Miami Center
04:08AM 20.4692 -69.8125 121° Southeast 495 570 37,000  Level Miami Center
04:09AM 20.4008 -69.6856 120° Southeast 495 570 37,000  Level Miami Center
04:10AM 20.3325 -69.5589 120° Southeast 495 570 37,000  Level Miami Center
04:11AM 20.2642 -69.4347 120° Southeast 495 570 37,000  Level Miami Center
04:12AM 20.1956 -69.3081 120° Southeast 495 570 37,000  Level Miami Center
04:13AM 20.1269 -69.1819 120° Southeast 495 570 37,000  Level Miami Center
04:14AM 20.0561 -69.0558 121° Southeast 495 570 37,000  Level Miami Center
04:15AM 19.9853 -68.9300 121° Southeast 495 570 37,000  Level Miami Center
04:16AM 19.9142 -68.8019 121° Southeast 495 570 37,000  Level Miami Center
04:17AM 19.8472 -68.6761 119° Southeast 495 570 37,000  Level Miami Center
04:18AM 19.7733 -68.5353 119° Southeast 495 570 37,000  Level Miami Center
04:19AM 19.6981 -68.4125 123° Southeast 495 570 37,000  Level Miami Center
04:20AM 19.6289 -68.2872 120° Southeast 495 570 37,000  Level Miami Center
04:21AM 19.5594 -68.1597 120° Southeast 495 570 37,000  Level Miami Center
04:22AM 19.4822 -68.0417 125° Southeast 495 570 37,000 -180 Level Miami Center
04:23AM 19.4189 -67.9119 117° Southeast 495 570 36,700 -600 Descending Miami Center
04:24AM 19.3514 -67.7850 119° Southeast 490 564 35,800 -1,140 Descending Miami Center
04:25AM 19.2797 -67.6625 122° Southeast 490 564 34,500 -2,460 Descending Miami Center
04:26AM 19.2000 -67.5333 123° Southeast 500 575 30,400 -3,600 Descending San Juan Center
04:27AM 19.1167 -67.4000 123° Southeast 500 575 26,500 -3,360 Descending San Juan Center
04:28AM 19.0500 -67.2833 121° Southeast 480 552 23,700 -2,880 Descending San Juan Center
04:29AM 18.9833 -67.1667 121° Southeast 450 518 20,800 -2,760 Descending San Juan Center
04:30AM 18.9333 -67.0500 114° Southeast 430 495 18,200 -2,700 Descending San Juan Center
04:31AM 18.8500 -66.9333 127° Southeast 400 460 15,500 -2,700 Descending San Juan Center
04:32AM 18.8000 -66.8333 118° Southeast 390 449 12,800 -2,340 Descending San Juan Center
04:33AM 18.7333 -66.7333 125° Southeast 370 426 10,900 -1,320 Descending San Juan Center
04:34AM 18.7000 -66.6500 113° Southeast 320 368 10,200 -1,020 Descending San Juan Center
04:35AM 18.6500 -66.5833 128° Southeast 300 345 8,900 -1,440 Descending San Juan Center
04:36AM 18.6000 -66.5000 122° Southeast 280 322 7,400 -1,320 Descending San Juan Center
04:37AM 18.5667 -66.4333 118° Southeast 280 322 6,300 -1,200 Descending San Juan Center
04:38AM 18.5333 -66.3667 118° Southeast 260 299 5,000 -1,320 Descending San Juan Center
04:39AM 18.5000 -66.3000 118° Southeast 260 299 3,700 -1,320 Descending San Juan Center
04:40AM 18.4500 -66.2500 137° Southeast 250 288 2,400 -720 Descending San Juan Center
04:41AM 18.4333 -66.1833 105° East 220 253 2,300 -180 Descending San Juan Center
04:42AM 18.4333 -66.1167 90° East 190 219 2,100 -540 Descending San Juan Center
04:43AM 18.4333 -66.0833 90° East 160 184 1,300 -720 Descending San Juan Center
04:44AM 18.4333 -66.0333 90° East 140 161 700 -600 Descending San Juan Center